Time;durP1;ratioP1;P1;durP2;ratioP2;P2;SDS_P1;SDS_P2;PMS_P1;PMS_P2;Temp;Humidity;BMP_temperature;BMP_pressure;BME280_temperature;BME280_humidity;BME280_pressure;Samples;Min_cycle;Max_cycle;Signal;HPM_P1;HPM_P2
2023/04/08 00:01:26;;;;;;;26.40;15.23;;;7.50;85.80;;;7.41;54.20;95033.16;5079198;28;20491;-59
2023/04/08 00:03:53;;;;;;;28.83;14.30;;;7.50;85.90;;;7.42;54.54;95033.97;5076112;28;20565;-58
2023/04/08 00:06:20;;;;;;;27.63;14.33;;;7.50;86.00;;;7.41;55.09;95033.16;5075300;28;21022;-57
2023/04/08 00:08:48;;;;;;;24.30;15.50;;;7.50;86.30;;;7.42;54.93;95033.97;5076589;28;20531;-57
2023/04/08 00:11:15;;;;;;;21.03;15.10;;;7.50;86.70;;;7.41;54.70;95038.38;5076053;28;20458;-56
2023/04/08 00:13:42;;;;;;;27.17;15.70;;;7.50;86.70;;;7.41;55.31;95035.78;5078147;28;20478;-57
2023/04/08 00:16:10;;;;;;;39.23;16.20;;;7.50;86.70;;;7.40;54.70;95026.25;5076869;28;20520;-66
2023/04/08 00:18:38;;;;;;;23.63;16.37;;;7.50;86.70;;;7.40;54.75;95028.03;5081946;28;20499;-57
2023/04/08 00:21:06;;;;;;;26.33;15.97;;;7.50;86.70;;;7.39;55.10;95028.97;5084932;28;20973;-58
2023/04/08 00:23:33;;;;;;;25.30;16.73;;;7.50;86.80;;;7.37;54.39;95021.25;5079183;28;20560;-66
2023/04/08 00:26:01;;;;;;;29.33;17.00;;;7.50;86.90;;;7.37;54.62;95023.84;5079554;28;20449;-66
2023/04/08 00:28:28;;;;;;;30.50;17.40;;;7.50;87.20;;;7.35;55.60;95023.16;5085343;28;20474;-66
2023/04/08 00:30:56;;;;;;;30.27;17.57;;;7.50;87.70;;;7.33;55.43;95025.06;5085147;28;21393;-58
2023/04/08 00:33:24;;;;;;;32.50;17.03;;;7.40;87.50;;;7.32;55.30;95024.22;5081123;28;20469;-66
2023/04/08 00:35:53;;;;;;;25.77;16.90;;;7.50;87.80;;;7.32;54.97;95024.22;5078683;28;20565;-56
2023/04/08 00:38:20;;;;;;;29.30;16.20;;;7.50;87.90;;;7.32;55.31;95032.06;5081896;28;20527;-55
2023/04/08 00:40:48;;;;;;;25.13;16.80;;;7.40;87.90;;;7.31;55.17;95026.94;5083751;28;20454;-58
2023/04/08 00:43:19;;;;;;;23.90;15.17;;;7.40;87.70;;;7.31;54.76;95032.16;5077655;28;21013;-66
2023/04/08 00:45:47;;;;;;;27.37;16.00;;;7.40;88.10;;;7.30;55.22;95033.16;5076751;28;20509;-66
2023/04/08 00:48:14;;;;;;;26.23;14.30;;;7.40;88.10;;;7.29;55.34;95041.94;5082987;28;20478;-56
2023/04/08 00:50:43;;;;;;;31.00;16.37;;;7.40;88.40;;;7.25;55.14;95032.63;5086055;28;20919;-66
2023/04/08 00:53:12;;;;;;;25.60;16.60;;;7.40;89.70;;;7.24;55.33;95041.44;5080051;28;20477;-58
2023/04/08 00:55:39;;;;;;;26.37;15.80;;;7.30;88.70;;;7.22;55.41;95038.09;5083881;28;21068;-58
2023/04/08 00:58:07;;;;;;;23.50;15.10;;;7.30;88.90;;;7.18;55.06;95037.50;5082191;28;20470;-66
2023/04/08 01:00:34;;;;;;;23.00;15.33;;;7.30;88.80;;;7.13;55.67;95030.00;5076035;28;20459;-65
2023/04/08 01:03:07;;;;;;;22.80;15.43;;;7.20;88.60;;;7.11;55.37;95039.75;5083551;28;20504;-58
2023/04/08 01:05:40;;;;;;;25.53;16.87;;;7.20;88.20;;;7.08;55.93;95041.75;5085037;28;20458;-57
2023/04/08 01:08:07;;;;;;;24.37;16.60;;;7.20;89.00;;;7.05;55.62;95041.97;5081471;28;20478;-66
2023/04/08 01:10:37;;;;;;;28.67;15.87;;;7.10;89.30;;;7.00;55.76;95040.56;5083593;28;20554;-57
2023/04/08 01:13:07;;;;;;;23.67;16.07;;;7.10;89.30;;;7.00;55.69;95040.56;5084420;28;20552;-66
2023/04/08 01:15:35;;;;;;;27.63;17.00;;;7.10;89.50;;;6.98;55.67;95047.66;5079632;28;20810;-66
2023/04/08 01:18:03;;;;;;;23.80;16.23;;;7.10;89.70;;;6.96;55.85;95048.72;5082130;28;20470;-57
2023/04/08 01:20:30;;;;;;;31.40;16.47;;;7.10;89.60;;;6.91;55.71;95048.22;5079721;28;20516;-57
2023/04/08 01:23:07;;;;;;;28.50;17.57;;;7.00;89.30;;;6.87;55.49;95044.19;5079380;28;20539;-56
2023/04/08 01:25:37;;;;;;;23.20;15.03;;;7.00;89.60;;;6.87;55.93;95044.19;5086486;28;20450;-66
2023/04/08 01:28:07;;;;;;;28.10;17.17;;;7.00;90.00;;;6.86;56.17;95043.31;5085939;28;21067;-68
2023/04/08 01:30:35;;;;;;;30.20;18.10;;;7.00;90.10;;;6.87;56.12;95047.63;5078825;28;20454;-66
2023/04/08 01:33:02;;;;;;;24.30;15.93;;;7.00;90.10;;;6.86;56.03;95045.94;5086060;28;20473;-67
2023/04/08 01:35:30;;;;;;;26.10;15.33;;;7.00;90.10;;;6.84;55.47;95050.47;5084742;28;20500;-67
2023/04/08 01:37:57;;;;;;;22.07;14.17;;;7.00;90.10;;;6.86;56.06;95052.97;5079241;28;20547;-55
2023/04/08 01:40:25;;;;;;;25.27;16.87;;;6.90;90.00;;;6.82;56.11;95047.97;5078833;28;20458;-67
2023/04/08 01:42:54;;;;;;;25.90;14.90;;;7.00;90.00;;;6.85;55.73;95051.28;5083825;28;20486;-56
2023/04/08 01:45:23;;;;;;;20.70;14.57;;;7.00;89.90;;;6.85;55.71;95048.66;5080020;28;20983;-56
2023/04/08 01:47:51;;;;;;;21.53;15.30;;;6.90;89.60;;;6.85;55.69;95044.28;5079194;28;20467;-67
2023/04/08 01:50:18;;;;;;;22.53;16.30;;;7.00;89.80;;;6.84;55.50;95049.63;5077084;28;21039;-67
2023/04/08 01:52:46;;;;;;;24.47;14.80;;;6.90;89.70;;;6.84;55.42;95049.63;5080505;28;20475;-67
2023/04/08 01:55:13;;;;;;;25.63;16.20;;;6.90;90.00;;;6.84;55.89;95057.47;5078835;28;20450;-56
2023/04/08 01:57:40;;;;;;;23.67;14.30;;;6.90;89.80;;;6.85;55.26;95056.50;5078593;28;20471;-57
2023/04/08 02:00:10;;;;;;;21.70;14.60;;;6.90;89.80;;;6.85;55.83;95059.97;5082748;28;20462;-55
2023/04/08 02:02:38;;;;;;;23.50;15.40;;;6.90;89.80;;;6.86;55.46;95068.66;5079314;28;20582;-67
2023/04/08 02:05:07;;;;;;;27.80;16.60;;;7.00;89.90;;;6.86;55.82;95063.41;5081778;28;20454;-57
2023/04/08 02:07:35;;;;;;;25.50;18.07;;;6.90;89.90;;;6.87;55.23;95067.72;5075618;28;20474;-68
2023/04/08 02:10:03;;;;;;;37.63;17.93;;;7.00;90.10;;;6.88;55.29;95070.22;5081249;28;20454;-67
2023/04/08 02:12:31;;;;;;;25.63;17.80;;;7.00;90.10;;;6.87;55.88;95073.78;5081209;28;20894;-58
2023/04/08 02:14:58;;;;;;;32.97;18.80;;;7.00;90.10;;;6.89;55.13;95073.66;5081210;28;20449;-58
2023/04/08 02:17:29;;;;;;;29.20;17.23;;;7.00;90.10;;;6.89;55.42;95074.47;5078045;28;20538;-57
2023/04/08 02:20:03;;;;;;;25.27;17.60;;;7.00;90.10;;;6.90;55.64;95072.72;5079769;28;20449;-66
2023/04/08 02:22:37;;;;;;;27.63;18.00;;;7.00;90.10;;;6.90;55.59;95078.78;5077474;28;20580;-67
2023/04/08 02:25:07;;;;;;;28.40;16.60;;;7.00;90.30;;;6.90;56.14;95076.16;5075380;28;20575;-56
2023/04/08 02:27:36;;;;;;;25.47;16.30;;;7.00;90.40;;;6.90;56.38;95080.56;5074206;28;20572;-58
2023/04/08 02:30:05;;;;;;;29.00;17.97;;;7.00;90.60;;;6.90;56.12;95076.16;5085776;28;20846;-68
2023/04/08 02:32:33;;;;;;;26.40;16.07;;;7.00;90.70;;;6.89;55.82;95081.50;5080352;28;20561;-67
2023/04/08 02:35:02;;;;;;;28.73;17.10;;;7.00;90.70;;;6.88;56.00;95080.69;5080644;28;20442;-55
2023/04/08 02:37:30;;;;;;;25.73;16.57;;;7.00;90.80;;;6.86;56.42;95077.31;5081745;28;20489;-66
2023/04/08 02:39:57;;;;;;;24.00;16.00;;;7.00;91.00;;;6.83;56.25;95074.94;5082489;28;20469;-58
2023/04/08 02:42:24;;;;;;;24.80;16.67;;;7.00;91.00;;;6.86;56.33;95074.69;5082438;28;20478;-59
2023/04/08 02:44:53;;;;;;;25.60;15.50;;;7.00;91.10;;;6.86;56.39;95077.31;5080467;28;20923;-67
2023/04/08 02:47:20;;;;;;;27.60;15.80;;;6.90;91.20;;;6.85;56.42;95066.97;5077775;28;21012;-67
2023/04/08 02:49:51;;;;;;;26.33;17.27;;;6.90;91.20;;;6.85;56.88;95062.59;5077681;28;20455;-68
2023/04/08 02:52:20;;;;;;;27.63;17.07;;;7.00;91.40;;;6.85;57.00;95066.97;5083136;28;20462;-56
2023/04/08 02:54:47;;;;;;;25.10;16.80;;;6.90;91.50;;;6.86;56.66;95073.88;5079965;28;20822;-67
2023/04/08 02:57:15;;;;;;;27.90;16.07;;;6.90;91.70;;;6.86;57.48;95071.25;5078742;28;20588;-57
2023/04/08 02:59:43;;;;;;;28.57;16.77;;;7.00;91.90;;;6.86;57.08;95073.88;5083018;28;20827;-67
2023/04/08 03:02:10;;;;;;;32.60;18.00;;;6.90;91.80;;;6.84;57.29;95070.56;5081773;28;20923;-67
2023/04/08 03:04:37;;;;;;;31.37;17.83;;;6.90;91.90;;;6.86;56.85;95079.09;5078073;28;20505;-58
2023/04/08 03:07:05;;;;;;;34.00;18.70;;;7.00;92.10;;;6.84;57.59;95079.22;5082112;28;20972;-57
2023/04/08 03:09:34;;;;;;;28.40;16.57;;;7.00;92.20;;;6.85;57.29;95067.81;5078646;28;20486;-56
2023/04/08 03:12:01;;;;;;;25.67;18.90;;;7.00;92.30;;;6.85;57.64;95069.59;5081295;28;20538;-68
2023/04/08 03:14:28;;;;;;;26.20;17.43;;;6.90;92.30;;;6.86;57.52;95071.25;5078501;28;20455;-68
2023/04/08 03:16:56;;;;;;;25.23;17.83;;;6.90;92.20;;;6.87;56.72;95070.31;5079622;28;20489;-67
2023/04/08 03:19:23;;;;;;;26.57;16.83;;;7.00;92.10;;;6.87;57.37;95073.78;5079512;28;20455;-67
2023/04/08 03:21:50;;;;;;;26.37;17.90;;;7.00;92.20;;;6.88;57.32;95074.59;5081168;28;20486;-57
2023/04/08 03:24:18;;;;;;;29.63;17.83;;;7.00;92.20;;;6.88;56.90;95066.75;5077639;28;20877;-56
2023/04/08 03:26:46;;;;;;;31.63;19.30;;;7.00;92.20;;;6.88;57.02;95074.59;5080005;28;20457;-67
2023/04/08 03:29:14;;;;;;;25.93;17.50;;;7.00;92.30;;;6.89;57.46;95074.47;5075955;28;20529;-66
2023/04/08 03:31:41;;;;;;;28.67;18.63;;;7.00;92.30;;;6.89;56.94;95068.44;5076452;28;20608;-57
2023/04/08 03:34:08;;;;;;;29.90;19.20;;;7.00;92.30;;;6.89;57.46;95073.66;5080402;28;20470;-67
2023/04/08 03:36:36;;;;;;;28.97;18.97;;;7.00;92.30;;;6.88;57.14;95072.84;5074050;28;20524;-57
2023/04/08 03:39:04;;;;;;;35.73;18.40;;;7.00;92.30;;;6.89;57.37;95076.28;5081049;28;20450;-66
2023/04/08 03:41:32;;;;;;;26.53;17.60;;;7.00;92.30;;;6.88;57.34;95079.81;5078007;28;20564;-67
2023/04/08 03:44:00;;;;;;;30.10;18.00;;;7.00;92.40;;;6.88;57.14;95074.59;5080577;28;20931;-57
2023/04/08 03:46:27;;;;;;;27.10;16.90;;;7.00;92.30;;;6.88;56.78;95077.22;5074133;28;20443;-57
2023/04/08 03:48:55;;;;;;;31.80;16.33;;;7.00;92.30;;;6.89;57.40;95074.47;5080488;28;20962;-57
2023/04/08 03:51:22;;;;;;;32.67;18.00;;;7.00;92.30;;;6.89;57.59;95069.25;5078353;28;20450;-58
2023/04/08 03:53:49;;;;;;;29.03;17.57;;;7.00;92.40;;;6.90;56.96;95077.94;5082833;28;20998;-57
2023/04/08 03:56:16;;;;;;;29.57;17.40;;;7.00;92.40;;;6.90;57.35;95073.53;5077966;28;20503;-68
2023/04/08 03:58:44;;;;;;;29.40;17.80;;;7.00;92.50;;;6.91;56.98;95069.13;5081095;28;20474;-57
2023/04/08 04:01:13;;;;;;;27.53;18.33;;;7.00;92.50;;;6.92;57.03;95078.66;5079788;28;20447;-67
2023/04/08 04:03:40;;;;;;;32.67;17.33;;;7.00;92.50;;;6.90;56.78;95076.16;5082556;28;20547;-58
2023/04/08 04:06:07;;;;;;;27.93;17.07;;;7.00;92.50;;;6.89;57.37;95068.44;5078509;28;20461;-67
2023/04/08 04:08:35;;;;;;;32.30;17.63;;;7.00;92.60;;;6.88;57.18;95071.97;5080025;28;20470;-67
2023/04/08 04:11:02;;;;;;;29.50;16.93;;;7.00;92.60;;;6.85;57.03;95073.06;5077731;28;20457;-58
2023/04/08 04:13:29;;;;;;;33.87;16.07;;;6.90;92.60;;;6.81;57.63;95072.44;5078286;28;20878;-66
2023/04/08 04:15:57;;;;;;;29.50;18.47;;;6.90;93.00;;;6.77;57.20;95075.38;5078923;28;20453;-68
2023/04/08 04:18:26;;;;;;;28.10;18.17;;;6.90;92.60;;;6.76;57.43;95082.41;5078059;28;20837;-68
2023/04/08 04:20:53;;;;;;;33.13;20.70;;;6.90;92.60;;;6.76;56.94;95086.78;5075255;28;20453;-57
2023/04/08 04:23:23;;;;;;;30.20;21.00;;;6.90;92.70;;;6.76;57.20;95089.41;5077602;28;20470;-67
2023/04/08 04:25:50;;;;;;;32.67;21.13;;;6.90;93.00;;;6.74;58.09;95092.13;5077893;28;20450;-57
2023/04/08 04:28:18;;;;;;;40.97;19.97;;;6.80;93.30;;;6.73;57.77;95094.84;5071166;28;20475;-69
2023/04/08 04:30:45;;;;;;;34.70;18.20;;;6.80;93.30;;;6.72;57.93;95087.94;5079674;28;20532;-66
2023/04/08 04:33:12;;;;;;;28.00;16.77;;;6.80;93.60;;;6.70;58.04;95093.28;5075887;28;20578;-57
2023/04/08 04:35:41;;;;;;;31.23;16.80;;;6.80;93.70;;;6.66;58.21;95091.00;5080882;28;20449;-67
2023/04/08 04:38:11;;;;;;;26.83;16.07;;;6.80;94.10;;;6.64;59.75;95093.72;5077487;28;20887;-58
2023/04/08 04:40:38;;;;;;;32.47;17.93;;;6.80;95.10;;;6.62;59.19;95093.00;5079992;28;20458;-66
2023/04/08 04:43:06;;;;;;;25.53;17.50;;;6.70;94.40;;;6.60;58.96;95089.66;5077926;28;20546;-56
2023/04/08 04:45:33;;;;;;;23.60;16.83;;;6.70;94.40;;;6.59;58.35;95090.63;5080986;28;20450;-68
2023/04/08 04:48:02;;;;;;;25.83;18.60;;;6.70;94.30;;;6.60;59.06;95094.88;5078011;28;20470;-68
2023/04/08 04:50:29;;;;;;;25.93;17.80;;;6.70;94.60;;;6.59;58.66;95085.41;5081905;28;20449;-58
2023/04/08 04:52:58;;;;;;;27.97;18.23;;;6.70;94.60;;;6.59;58.55;95088.84;5078946;28;20509;-67
2023/04/08 04:55:26;;;;;;;31.10;18.27;;;6.70;94.40;;;6.61;58.93;95096.56;5080851;28;20458;-69
2023/04/08 04:57:53;;;;;;;35.20;18.20;;;6.70;94.40;;;6.62;58.35;95088.63;5078589;28;20493;-68
2023/04/08 05:00:20;;;;;;;34.73;19.87;;;6.70;94.50;;;6.67;59.06;95095.31;5077583;28;20453;-58
2023/04/08 05:02:48;;;;;;;30.77;19.77;;;6.70;94.60;;;6.69;58.99;95096.84;5080111;28;20481;-67
2023/04/08 05:05:16;;;;;;;31.60;22.37;;;6.80;94.60;;;6.73;58.54;95092.25;5080280;28;20530;-67
2023/04/08 05:07:43;;;;;;;40.03;19.33;;;6.80;94.50;;;6.75;58.07;95099.00;5085122;28;20523;-56
2023/04/08 05:10:12;;;;;;;28.80;18.30;;;6.80;94.80;;;6.79;58.23;95095.25;5083051;28;20450;-58
2023/04/08 05:12:40;;;;;;;34.90;19.43;;;6.90;94.50;;;6.83;58.35;95095.84;5082540;28;20469;-56
2023/04/08 05:15:08;;;;;;;32.70;19.47;;;6.90;94.20;;;6.88;58.43;95103.34;5084343;28;20450;-67
2023/04/08 05:17:36;;;;;;;31.83;19.30;;;6.90;94.20;;;6.92;58.35;95107.41;5081788;28;20970;-68
2023/04/08 05:20:04;;;;;;;34.20;20.40;;;7.00;94.40;;;6.96;58.08;95101.03;5082696;28;20453;-57
2023/04/08 05:22:31;;;;;;;44.53;21.63;;;7.00;94.30;;;7.01;57.72;95098.91;5084609;28;20573;-58
2023/04/08 05:24:58;;;;;;;35.13;21.07;;;7.10;94.30;;;7.06;58.45;95095.97;5083481;28;20453;-57
2023/04/08 05:27:27;;;;;;;34.30;20.50;;;7.10;94.20;;;7.11;58.24;95099.91;5080198;28;20489;-68
2023/04/08 05:29:55;;;;;;;33.13;17.63;;;7.20;94.20;;;7.16;58.18;95095.16;5078708;28;20803;-57
2023/04/08 05:32:22;;;;;;;35.63;18.37;;;7.20;94.20;;;7.23;57.62;95105.19;5081858;28;20510;-67
2023/04/08 05:34:49;;;;;;;24.83;18.10;;;7.30;94.20;;;7.30;58.20;95109.00;5079775;28;20443;-67
2023/04/08 05:37:17;;;;;;;30.33;20.10;;;7.40;94.60;;;7.37;57.76;95104.97;5078962;28;20507;-67
2023/04/08 05:39:45;;;;;;;32.03;18.80;;;7.40;94.40;;;7.44;57.73;95095.72;5088032;28;20454;-68
2023/04/08 05:42:12;;;;;;;31.10;19.70;;;7.50;94.50;;;7.53;57.86;95104.69;5086440;28;20489;-57
2023/04/08 05:44:42;;;;;;;30.57;18.97;;;7.60;94.60;;;7.63;57.81;95102.19;5082198;28;20486;-71
2023/04/08 05:47:10;;;;;;;30.93;18.80;;;7.70;94.10;;;7.70;57.44;95098.16;5082040;28;20539;-58
2023/04/08 05:49:37;;;;;;;31.90;19.20;;;7.80;94.00;;;7.82;57.60;95102.47;5079614;28;21058;-57
2023/04/08 05:52:05;;;;;;;37.73;20.73;;;7.90;94.10;;;7.90;57.38;95104.50;5081365;28;20481;-70
2023/04/08 05:54:33;;;;;;;33.10;18.87;;;7.90;94.10;;;7.96;57.48;95101.38;5083200;28;20457;-69
2023/04/08 05:57:00;;;;;;;30.10;17.20;;;8.00;93.80;;;8.02;56.67;95098.28;5083107;28;20990;-70
2023/04/08 05:59:27;;;;;;;32.20;18.63;;;8.10;93.60;;;8.06;57.13;95101.53;5082590;28;20454;-58
2023/04/08 06:01:56;;;;;;;30.00;18.33;;;8.10;93.60;;;8.11;57.13;95096.75;5080194;28;20486;-71
2023/04/08 06:04:23;;;;;;;25.67;19.07;;;8.20;93.50;;;8.18;56.56;95092.72;5082783;28;20945;-57
2023/04/08 06:06:51;;;;;;;30.67;19.40;;;8.20;93.30;;;8.24;56.50;95088.75;5080458;28;20571;-69
2023/04/08 06:09:18;;;;;;;38.57;20.70;;;8.30;93.30;;;8.31;56.78;95089.13;5079884;28;20465;-70
2023/04/08 06:11:46;;;;;;;44.50;20.03;;;8.30;93.10;;;8.38;56.38;95093.78;5078467;28;20451;-55
2023/04/08 06:14:13;;;;;;;41.43;19.30;;;8.40;93.20;;;8.45;56.37;95090.72;5081121;28;20454;-69
2023/04/08 06:16:40;;;;;;;27.63;18.57;;;8.50;93.00;;;8.51;56.19;95096.28;5072876;28;20486;-70
2023/04/08 06:19:09;;;;;;;29.80;19.90;;;8.60;92.90;;;8.58;55.89;95092.22;5082308;28;20490;-69
2023/04/08 06:21:36;;;;;;;30.90;19.53;;;8.60;92.70;;;8.64;55.45;95093.50;5081665;28;20447;-70
2023/04/08 06:24:04;;;;;;;31.17;19.30;;;8.70;92.60;;;8.70;55.33;95085.16;5078794;28;20447;-58
2023/04/08 06:26:31;;;;;;;31.07;21.90;;;8.70;92.40;;;8.75;54.93;95090.03;5078064;28;20453;-58
2023/04/08 06:28:59;;;;;;;33.03;20.33;;;8.80;92.10;;;8.81;55.07;95092.16;5079741;28;20495;-69
2023/04/08 06:31:26;;;;;;;26.70;18.20;;;8.80;91.90;;;8.88;54.97;95095.16;5080123;28;21020;-57
2023/04/08 06:33:54;;;;;;;28.43;18.80;;;8.90;91.80;;;8.94;54.58;95092.84;5082204;28;20458;-57
2023/04/08 06:36:23;;;;;;;35.80;19.30;;;8.90;91.70;;;9.00;54.75;95098.53;5081814;28;20538;-69
2023/04/08 06:38:51;;;;;;;45.73;20.93;;;9.00;91.20;;;9.03;54.06;95095.69;5082989;28;20599;-68
2023/04/08 06:41:18;;;;;;;33.10;19.57;;;9.10;91.00;;;9.06;54.34;95096.28;5083462;28;20454;-58
2023/04/08 06:43:45;;;;;;;29.70;17.53;;;9.10;91.10;;;9.11;53.91;95101.97;5073356;28;21056;-70
2023/04/08 06:46:13;;;;;;;34.67;20.03;;;9.10;90.90;;;9.13;53.76;95100.03;5083502;28;20454;-70
2023/04/08 06:48:40;;;;;;;30.40;19.13;;;9.20;90.60;;;9.12;53.75;95105.41;5081575;28;20612;-56
2023/04/08 06:51:07;;;;;;;22.50;16.97;;;9.20;90.60;;;9.13;53.82;95099.22;5079692;28;20455;-58
2023/04/08 06:53:36;;;;;;;32.03;16.43;;;9.20;90.60;;;9.15;53.60;95094.69;5085595;28;20462;-61
2023/04/08 06:56:04;;;;;;;25.00;16.40;;;9.20;90.60;;;9.15;53.99;95097.31;5084293;28;20446;-58
2023/04/08 06:58:31;;;;;;;23.60;14.93;;;9.20;90.50;;;9.14;53.87;95096.47;5079440;28;20592;-68
2023/04/08 07:01:00;;;;;;;23.00;15.47;;;9.20;90.30;;;9.13;53.93;95101.84;5082284;28;20472;-56
2023/04/08 07:03:27;;;;;;;24.77;17.17;;;9.20;90.40;;;9.16;54.25;95112.09;5075691;28;20558;-67
2023/04/08 07:05:54;;;;;;;28.77;16.40;;;9.20;90.50;;;9.20;53.61;95107.41;5081337;28;20968;-57
2023/04/08 07:08:22;;;;;;;24.93;15.50;;;9.20;90.40;;;9.23;53.97;95097.50;5081551;28;20990;-67
2023/04/08 07:10:52;;;;;;;36.47;16.50;;;9.20;90.40;;;9.29;53.50;95102.25;5084420;28;20454;-59
2023/04/08 07:13:20;;;;;;;23.00;15.37;;;9.30;90.40;;;9.38;53.45;95105.09;5082291;28;20509;-67
2023/04/08 07:15:47;;;;;;;21.30;14.43;;;9.40;90.40;;;9.42;53.55;95104.72;5082464;28;20450;-57
2023/04/08 07:18:15;;;;;;;23.53;15.57;;;9.40;90.30;;;9.47;53.35;95115.66;5078814;28;20532;-67
2023/04/08 07:20:42;;;;;;;20.40;14.57;;;9.50;90.00;;;9.46;53.28;95113.16;5082681;28;20443;-69
2023/04/08 07:23:10;;;;;;;19.20;14.80;;;9.50;89.80;;;9.45;53.08;95116.72;5080863;28;20466;-67
2023/04/08 07:25:37;;;;;;;23.13;16.63;;;9.40;89.60;;;9.49;53.33;95118.97;5083313;28;20446;-59
2023/04/08 07:28:06;;;;;;;31.87;14.93;;;9.50;90.00;;;9.57;53.36;95122.75;5082290;28;20477;-70
2023/04/08 07:30:33;;;;;;;25.23;14.93;;;9.60;90.10;;;9.59;52.84;95108.56;5080354;28;20461;-67
2023/04/08 07:33:01;;;;;;;30.43;16.20;;;9.60;89.80;;;9.62;53.14;95112.69;5079798;28;20918;-70
2023/04/08 07:35:28;;;;;;;25.77;15.60;;;9.60;89.50;;;9.67;53.64;95116.63;5081329;28;20500;-58
2023/04/08 07:37:56;;;;;;;23.70;15.57;;;9.70;89.80;;;9.75;53.43;95123.03;5080213;28;20497;-67
2023/04/08 07:40:23;;;;;;;26.87;15.53;;;9.70;89.90;;;9.83;53.00;95123.22;5081347;28;20919;-59
2023/04/08 07:42:51;;;;;;;20.57;14.93;;;9.80;89.50;;;9.87;52.89;95128.09;5077998;28;20478;-69
2023/04/08 07:45:20;;;;;;;20.70;14.27;;;9.80;89.00;;;9.92;52.97;95127.69;5080679;28;20458;-69
2023/04/08 07:47:47;;;;;;;26.30;16.40;;;9.90;89.10;;;9.96;53.35;95126.50;5075926;28;21056;-59
2023/04/08 07:50:15;;;;;;;22.37;15.43;;;9.90;89.20;;;10.06;52.96;95134.41;5082427;28;21019;-58
2023/04/08 07:52:42;;;;;;;24.30;16.10;;;10.00;88.00;;;10.16;52.54;95131.81;5081981;28;20466;-68
2023/04/08 07:55:10;;;;;;;22.17;15.87;;;10.10;88.10;;;10.21;52.75;95137.53;5072530;28;20447;-69
2023/04/08 07:57:37;;;;;;;19.17;14.60;;;10.20;88.10;;;10.23;52.49;95136.44;5078395;28;20489;-66
2023/04/08 08:00:06;;;;;;;18.90;15.23;;;10.20;87.40;;;10.26;52.56;95148.50;5080728;28;20454;-70
2023/04/08 08:02:36;;;;;;;20.60;14.73;;;10.20;87.00;;;10.28;52.38;95149.19;5077418;28;20473;-58
2023/04/08 08:05:03;;;;;;;34.57;18.00;;;10.20;86.70;;;10.33;52.68;95154.09;5078920;28;21185;-58
2023/04/08 08:07:30;;;;;;;28.77;17.27;;;10.30;87.70;;;10.44;54.71;95159.28;5083028;28;20470;-71
2023/04/08 08:09:58;;;;;;;19.53;14.90;;;10.40;91.40;;;10.54;52.95;95151.41;5081912;28;20894;-68
2023/04/08 08:12:25;;;;;;;24.23;16.40;;;10.50;89.10;;;10.53;52.66;95140.06;5074721;28;20467;-69
2023/04/08 08:14:53;;;;;;;23.03;15.77;;;10.50;88.10;;;10.53;52.59;95133.97;5080606;28;20465;-57
2023/04/08 08:17:21;;;;;;;22.97;14.50;;;10.50;88.00;;;10.52;52.63;95125.25;5078438;28;20811;-57
2023/04/08 08:19:50;;;;;;;28.23;15.00;;;10.50;87.30;;;10.54;52.31;95128.56;5077568;28;20457;-69
2023/04/08 08:22:17;;;;;;;20.70;14.00;;;10.50;87.00;;;10.56;52.60;95139.78;5074938;28;20467;-69
2023/04/08 08:24:44;;;;;;;19.83;13.13;;;10.50;86.90;;;10.61;52.40;95136.75;5083626;28;20449;-58
2023/04/08 08:27:12;;;;;;;25.50;12.77;;;10.50;86.90;;;10.69;52.33;95143.97;5083068;28;20855;-68
2023/04/08 08:29:39;;;;;;;18.17;13.53;;;10.60;86.60;;;10.76;52.19;95145.94;5081174;28;20507;-59
2023/04/08 08:32:07;;;;;;;17.07;13.93;;;10.70;86.60;;;10.85;52.12;95151.38;5082528;28;20465;-69
2023/04/08 08:34:34;;;;;;;20.17;12.70;;;10.80;86.40;;;10.94;51.98;95147.94;5082139;28;20453;-68
2023/04/08 08:37:03;;;;;;;20.80;12.70;;;10.80;86.20;;;11.05;51.75;95139.91;5080461;28;20488;-58
2023/04/08 08:39:30;;;;;;;25.27;13.77;;;11.00;86.10;;;11.18;52.02;95138.81;5073908;28;20455;-60
2023/04/08 08:41:58;;;;;;;20.73;14.80;;;11.10;86.10;;;11.35;51.70;95142.59;5082439;28;20481;-72
2023/04/08 08:44:25;;;;;;;24.63;15.23;;;11.20;85.80;;;11.39;51.68;95136.09;5086050;28;20438;-70
2023/04/08 08:46:53;;;;;;;16.47;13.60;;;11.30;85.30;;;11.39;50.99;95134.28;5085041;28;20505;-61
2023/04/08 08:49:21;;;;;;;18.63;13.77;;;11.30;84.20;;;11.38;51.09;95132.59;5081040;28;20462;-67
2023/04/08 08:51:49;;;;;;;25.13;14.40;;;11.30;84.00;;;11.46;51.04;95127.50;5078801;28;20463;-59
2023/04/08 08:54:18;;;;;;;16.57;13.40;;;11.40;84.10;;;11.55;50.73;95143.41;5080245;28;20457;-57
2023/04/08 08:56:45;;;;;;;22.97;14.30;;;11.50;83.50;;;11.61;50.78;95145.50;5084324;28;20471;-65
2023/04/08 08:59:13;;;;;;;26.00;15.20;;;11.50;83.50;;;11.66;50.95;95140.63;5079813;28;20493;-65
2023/04/08 09:01:40;;;;;;;28.17;15.53;;;11.60;83.90;;;11.78;51.24;95142.16;5083576;28;20816;-64
2023/04/08 09:04:15;;;;;;;21.07;13.73;;;11.70;84.20;;;11.88;50.79;95136.03;5082109;28;20542;-64
2023/04/08 09:06:42;;;;;;;18.90;13.40;;;11.80;83.80;;;11.99;50.48;95133.25;5087683;28;20455;-64
2023/04/08 09:09:12;;;;;;;24.63;12.77;;;11.90;83.20;;;12.07;50.33;95133.41;5078899;28;20462;-58
2023/04/08 09:11:41;;;;;;;23.27;15.20;;;12.00;82.50;;;12.14;49.88;95139.75;5077061;28;20458;-59
2023/04/08 09:14:21;;;;;;;23.77;14.83;;;12.10;82.00;;;12.25;49.84;95138.75;5079583;28;20462;-58
2023/04/08 09:16:49;;;;;;;25.20;15.30;;;12.10;81.60;;;12.36;49.83;95137.75;5081102;28;20515;-63
2023/04/08 09:19:16;;;;;;;21.43;13.93;;;12.30;81.60;;;12.43;49.33;95141.47;5081667;28;20485;-58
2023/04/08 09:21:44;;;;;;;24.83;14.63;;;12.40;80.70;;;12.54;49.05;95140.47;5080323;28;21006;-58
2023/04/08 09:24:27;;;;;;;19.37;12.83;;;12.50;79.70;;;12.67;48.66;95140.97;5083451;28;20453;-67
2023/04/08 09:26:56;;;;;;;16.50;12.63;;;12.60;78.90;;;12.82;48.76;95140.47;5083271;28;20499;-58
2023/04/08 09:29:24;;;;;;;18.17;13.23;;;12.70;78.80;;;12.97;48.46;95138.19;5079150;28;20454;-57
2023/04/08 09:31:54;;;;;;;24.17;13.90;;;12.90;78.70;;;13.14;48.19;95137.38;5080575;28;20560;-58
2023/04/08 09:34:22;;;;;;;25.73;16.03;;;13.00;77.50;;;13.31;48.11;95129.59;5079040;28;20459;-68
2023/04/08 09:36:49;;;;;;;25.77;14.20;;;13.20;77.50;;;13.44;47.17;95130.91;5084321;28;20475;-68
2023/04/08 09:39:17;;;;;;;35.90;16.97;;;13.40;76.10;;;13.67;47.43;95134.94;5088154;28;20490;-58
2023/04/08 09:41:44;;;;;;;21.90;14.37;;;13.50;76.00;;;13.85;47.16;95119.03;5083142;28;20462;-58
2023/04/08 09:44:13;;;;;;;22.50;14.70;;;13.70;75.30;;;14.02;46.58;95120.00;5080126;28;20476;-69
2023/04/08 09:46:44;;;;;;;26.23;14.60;;;13.80;74.50;;;14.12;46.06;95115.44;5082107;28;20462;-58
2023/04/08 09:49:15;;;;;;;21.10;15.27;;;14.00;73.40;;;14.23;45.32;95117.81;5085683;28;20443;-69
2023/04/08 09:51:49;;;;;;;20.73;14.93;;;14.10;71.70;;;14.34;44.80;95116.72;5076551;28;20512;-68
2023/04/08 09:54:21;;;;;;;21.90;14.60;;;14.20;70.80;;;14.34;45.61;95116.72;5082335;28;20832;-58
2023/04/08 09:56:54;;;;;;;20.37;14.43;;;14.20;71.80;;;14.43;45.66;95107.84;5080474;28;20481;-68
2023/04/08 09:59:23;;;;;;;17.90;12.47;;;14.30;71.70;;;14.61;45.18;95105.16;5080900;28;20489;-59
2023/04/08 10:01:53;;;;;;;18.77;12.67;;;14.50;70.30;;;14.80;44.72;95106.72;5073549;28;21033;-69
2023/04/08 10:04:22;;;;;;;22.10;13.50;;;14.60;70.30;;;14.94;44.27;95097.31;5080790;28;20461;-58
2023/04/08 10:06:52;;;;;;;20.90;13.30;;;14.70;69.30;;;15.23;43.92;95094.25;5084532;28;20903;-68
2023/04/08 10:09:21;;;;;;;19.83;13.53;;;15.00;68.80;;;15.58;43.38;95087.00;5072977;28;20489;-58
2023/04/08 10:11:48;;;;;;;15.93;10.90;;;15.30;67.50;;;15.93;42.73;95090.31;5077571;28;20460;-58
2023/04/08 10:14:16;;;;;;;14.37;11.23;;;15.60;66.40;;;16.16;42.05;95091.44;5081953;28;20489;-68
2023/04/08 10:16:44;;;;;;;17.20;12.00;;;15.90;64.50;;;16.18;40.38;95089.47;5082161;28;21121;-69
2023/04/08 10:19:40;;;;;;;17.33;11.37;;;16.00;62.40;;;15.88;41.22;95083.84;5081194;28;20489;-58